sensor_id;sensor_type;location;lat;lon;timestamp;temperature;humidity
23873;DHT22;42884;50.718;4.630;2024-03-02T00:00:07;7.70;99.90
23873;DHT22;42884;50.718;4.630;2024-03-02T00:02:43;7.80;99.90
23873;DHT22;42884;50.718;4.630;2024-03-02T00:05:20;7.70;99.90
23873;DHT22;42884;50.718;4.630;2024-03-02T00:07:55;7.70;99.90
23873;DHT22;42884;50.718;4.630;2024-03-02T00:10:24;7.80;99.90
23873;DHT22;42884;50.718;4.630;2024-03-02T00:12:54;7.80;99.90
23873;DHT22;42884;50.718;4.630;2024-03-02T00:17:55;7.70;99.90
23873;DHT22;42884;50.718;4.630;2024-03-02T00:20:22;7.80;99.90
23873;DHT22;42884;50.718;4.630;2024-03-02T00:22:51;7.80;99.90
23873;DHT22;42884;50.718;4.630;2024-03-02T00:25:17;7.70;99.90
23873;DHT22;42884;50.718;4.630;2024-03-02T00:27:47;7.80;99.90
23873;DHT22;42884;50.718;4.630;2024-03-02T00:32:59;7.60;99.90
23873;DHT22;42884;50.718;4.630;2024-03-02T00:35:25;7.60;99.90
23873;DHT22;42884;50.718;4.630;2024-03-02T00:37:50;7.60;99.90
23873;DHT22;42884;50.718;4.630;2024-03-02T00:40:17;7.60;99.90
23873;DHT22;42884;50.718;4.630;2024-03-02T00:42:44;7.50;99.90
23873;DHT22;42884;50.718;4.630;2024-03-02T00:45:10;7.50;99.90
23873;DHT22;42884;50.718;4.630;2024-03-02T00:47:39;7.50;99.90
23873;DHT22;42884;50.718;4.630;2024-03-02T00:50:05;7.50;99.90
23873;DHT22;42884;50.718;4.630;2024-03-02T00:52:32;7.40;99.90
23873;DHT22;42884;50.718;4.630;2024-03-02T00:54:58;7.50;99.90
23873;DHT22;42884;50.718;4.630;2024-03-02T00:57:25;7.40;99.90
23873;DHT22;42884;50.718;4.630;2024-03-02T00:59:52;7.50;99.90
23873;DHT22;42884;50.718;4.630;2024-03-02T01:02:17;7.50;99.90
23873;DHT22;42884;50.718;4.630;2024-03-02T01:04:45;7.60;99.90
23873;DHT22;42884;50.718;4.630;2024-03-02T01:07:11;7.50;99.90
23873;DHT22;42884;50.718;4.630;2024-03-02T01:09:37;7.60;99.90
23873;DHT22;42884;50.718;4.630;2024-03-02T01:12:03;7.60;99.90
23873;DHT22;42884;50.718;4.630;2024-03-02T01:14:28;7.60;99.90
23873;DHT22;42884;50.718;4.630;2024-03-02T01:16:54;7.50;99.90
23873;DHT22;42884;50.718;4.630;2024-03-02T01:19:20;7.50;99.90
23873;DHT22;42884;50.718;4.630;2024-03-02T01:21:46;7.50;99.90
23873;DHT22;42884;50.718;4.630;2024-03-02T01:24:12;7.50;99.90
23873;DHT22;42884;50.718;4.630;2024-03-02T01:26:38;7.60;99.90
23873;DHT22;42884;50.718;4.630;2024-03-02T01:29:04;7.60;99.90
23873;DHT22;42884;50.718;4.630;2024-03-02T01:31:30;7.60;99.90
23873;DHT22;42884;50.718;4.630;2024-03-02T01:33:55;7.60;99.90
23873;DHT22;42884;50.718;4.630;2024-03-02T01:36:21;7.50;99.90
23873;DHT22;42884;50.718;4.630;2024-03-02T01:38:47;7.40;99.90
23873;DHT22;42884;50.718;4.630;2024-03-02T01:41:13;7.40;99.90
23873;DHT22;42884;50.718;4.630;2024-03-02T01:43:39;7.40;99.90
23873;DHT22;42884;50.718;4.630;2024-03-02T01:46:04;7.40;99.90
23873;DHT22;42884;50.718;4.630;2024-03-02T01:48:30;7.40;99.90
23873;DHT22;42884;50.718;4.630;2024-03-02T01:50:56;7.40;99.90
23873;DHT22;42884;50.718;4.630;2024-03-02T01:53:22;7.40;99.90
23873;DHT22;42884;50.718;4.630;2024-03-02T01:55:49;7.30;99.90
23873;DHT22;42884;50.718;4.630;2024-03-02T01:58:14;7.30;99.90
23873;DHT22;42884;50.718;4.630;2024-03-02T02:00:40;7.20;99.90
23873;DHT22;42884;50.718;4.630;2024-03-02T02:03:06;7.30;99.90
23873;DHT22;42884;50.718;4.630;2024-03-02T02:05:32;7.20;99.90
23873;DHT22;42884;50.718;4.630;2024-03-02T02:07:58;7.30;99.90
23873;DHT22;42884;50.718;4.630;2024-03-02T02:10:24;7.30;99.90
23873;DHT22;42884;50.718;4.630;2024-03-02T02:12:50;7.30;99.90
23873;DHT22;42884;50.718;4.630;2024-03-02T02:15:29;7.20;99.90
23873;DHT22;42884;50.718;4.630;2024-03-02T02:17:56;7.30;99.90
23873;DHT22;42884;50.718;4.630;2024-03-02T02:20:23;7.20;99.90
23873;DHT22;42884;50.718;4.630;2024-03-02T02:22:57;7.10;99.90
23873;DHT22;42884;50.718;4.630;2024-03-02T02:25:23;7.10;99.90
23873;DHT22;42884;50.718;4.630;2024-03-02T02:27:48;7.20;99.90
23873;DHT22;42884;50.718;4.630;2024-03-02T02:30:19;7.30;99.90
23873;DHT22;42884;50.718;4.630;2024-03-02T02:32:45;7.30;99.90
23873;DHT22;42884;50.718;4.630;2024-03-02T02:35:11;7.20;99.90
23873;DHT22;42884;50.718;4.630;2024-03-02T02:37:38;7.10;99.90
23873;DHT22;42884;50.718;4.630;2024-03-02T02:40:04;7.00;99.90
23873;DHT22;42884;50.718;4.630;2024-03-02T02:42:30;7.10;99.90
23873;DHT22;42884;50.718;4.630;2024-03-02T02:44:56;7.10;99.90
23873;DHT22;42884;50.718;4.630;2024-03-02T02:47:22;7.20;99.90
23873;DHT22;42884;50.718;4.630;2024-03-02T02:49:47;7.10;99.90
23873;DHT22;42884;50.718;4.630;2024-03-02T02:52:13;7.10;99.90
23873;DHT22;42884;50.718;4.630;2024-03-02T02:54:39;7.10;99.90
23873;DHT22;42884;50.718;4.630;2024-03-02T02:57:04;7.10;99.90
23873;DHT22;42884;50.718;4.630;2024-03-02T02:59:30;7.10;99.90
23873;DHT22;42884;50.718;4.630;2024-03-02T03:01:56;7.20;99.90
23873;DHT22;42884;50.718;4.630;2024-03-02T03:04:22;7.10;99.90
23873;DHT22;42884;50.718;4.630;2024-03-02T03:06:47;7.00;99.90
23873;DHT22;42884;50.718;4.630;2024-03-02T03:09:13;6.90;99.90
23873;DHT22;42884;50.718;4.630;2024-03-02T03:11:39;7.00;99.90
23873;DHT22;42884;50.718;4.630;2024-03-02T03:14:04;7.00;99.90
23873;DHT22;42884;50.718;4.630;2024-03-02T03:16:30;7.00;99.90
23873;DHT22;42884;50.718;4.630;2024-03-02T03:18:56;7.00;99.90
23873;DHT22;42884;50.718;4.630;2024-03-02T03:21:22;7.00;99.90
23873;DHT22;42884;50.718;4.630;2024-03-02T03:23:47;6.90;99.90
23873;DHT22;42884;50.718;4.630;2024-03-02T03:26:13;7.00;99.90
23873;DHT22;42884;50.718;4.630;2024-03-02T03:28:39;7.00;99.90
23873;DHT22;42884;50.718;4.630;2024-03-02T03:31:04;7.00;99.90
23873;DHT22;42884;50.718;4.630;2024-03-02T03:33:30;7.00;99.90
23873;DHT22;42884;50.718;4.630;2024-03-02T03:35:56;6.90;99.90
23873;DHT22;42884;50.718;4.630;2024-03-02T03:38:21;6.90;99.90
23873;DHT22;42884;50.718;4.630;2024-03-02T03:40:47;6.90;99.90
23873;DHT22;42884;50.718;4.630;2024-03-02T03:43:13;6.90;99.90
23873;DHT22;42884;50.718;4.630;2024-03-02T03:45:39;6.90;99.90
23873;DHT22;42884;50.718;4.630;2024-03-02T03:48:05;6.90;99.90
23873;DHT22;42884;50.718;4.630;2024-03-02T03:50:30;7.00;99.90
23873;DHT22;42884;50.718;4.630;2024-03-02T03:52:56;6.90;99.90
23873;DHT22;42884;50.718;4.630;2024-03-02T03:55:22;6.90;99.90
23873;DHT22;42884;50.718;4.630;2024-03-02T03:57:48;6.80;99.90
23873;DHT22;42884;50.718;4.630;2024-03-02T04:00:14;6.80;99.90
23873;DHT22;42884;50.718;4.630;2024-03-02T04:02:39;6.80;99.90
23873;DHT22;42884;50.718;4.630;2024-03-02T04:05:06;6.80;99.90
23873;DHT22;42884;50.718;4.630;2024-03-02T04:07:35;6.70;99.90
23873;DHT22;42884;50.718;4.630;2024-03-02T04:10:06;6.70;99.90
23873;DHT22;42884;50.718;4.630;2024-03-02T04:12:33;6.80;99.90
23873;DHT22;42884;50.718;4.630;2024-03-02T04:15:00;6.80;99.90
23873;DHT22;42884;50.718;4.630;2024-03-02T04:17:28;6.80;99.90
23873;DHT22;42884;50.718;4.630;2024-03-02T04:19:54;6.80;99.90
23873;DHT22;42884;50.718;4.630;2024-03-02T04:22:19;6.90;99.90
23873;DHT22;42884;50.718;4.630;2024-03-02T04:24:45;6.90;99.90
23873;DHT22;42884;50.718;4.630;2024-03-02T04:27:11;6.90;99.90
23873;DHT22;42884;50.718;4.630;2024-03-02T04:29:36;6.80;99.90
23873;DHT22;42884;50.718;4.630;2024-03-02T04:32:02;6.70;99.90
23873;DHT22;42884;50.718;4.630;2024-03-02T04:34:28;6.70;99.90
23873;DHT22;42884;50.718;4.630;2024-03-02T04:36:54;6.60;99.90
23873;DHT22;42884;50.718;4.630;2024-03-02T04:39:19;6.50;99.90
23873;DHT22;42884;50.718;4.630;2024-03-02T04:41:45;6.50;99.90
23873;DHT22;42884;50.718;4.630;2024-03-02T04:44:11;6.50;99.90
23873;DHT22;42884;50.718;4.630;2024-03-02T04:46:36;6.50;99.90
23873;DHT22;42884;50.718;4.630;2024-03-02T04:49:02;6.50;99.90
23873;DHT22;42884;50.718;4.630;2024-03-02T04:51:28;6.60;99.90
23873;DHT22;42884;50.718;4.630;2024-03-02T04:53:54;6.70;99.90
23873;DHT22;42884;50.718;4.630;2024-03-02T04:56:19;6.70;99.90
23873;DHT22;42884;50.718;4.630;2024-03-02T04:58:48;6.60;99.90
23873;DHT22;42884;50.718;4.630;2024-03-02T05:01:14;6.50;99.90
23873;DHT22;42884;50.718;4.630;2024-03-02T05:03:42;6.60;99.90
23873;DHT22;42884;50.718;4.630;2024-03-02T05:06:07;6.50;99.90
23873;DHT22;42884;50.718;4.630;2024-03-02T05:08:34;6.40;99.90
23873;DHT22;42884;50.718;4.630;2024-03-02T05:11:00;6.50;99.90
23873;DHT22;42884;50.718;4.630;2024-03-02T05:13:45;6.50;99.90
23873;DHT22;42884;50.718;4.630;2024-03-02T05:16:12;6.40;99.90
23873;DHT22;42884;50.718;4.630;2024-03-02T05:18:38;6.40;99.90
23873;DHT22;42884;50.718;4.630;2024-03-02T05:21:03;6.40;99.90
23873;DHT22;42884;50.718;4.630;2024-03-02T05:23:29;6.30;99.90
23873;DHT22;42884;50.718;4.630;2024-03-02T05:25:55;6.30;99.90
23873;DHT22;42884;50.718;4.630;2024-03-02T05:28:20;6.30;99.90
23873;DHT22;42884;50.718;4.630;2024-03-02T05:30:46;6.20;99.90
23873;DHT22;42884;50.718;4.630;2024-03-02T05:33:12;6.20;99.90
23873;DHT22;42884;50.718;4.630;2024-03-02T05:35:38;6.20;99.90
23873;DHT22;42884;50.718;4.630;2024-03-02T05:38:04;6.20;99.90
23873;DHT22;42884;50.718;4.630;2024-03-02T05:40:30;6.20;99.90
23873;DHT22;42884;50.718;4.630;2024-03-02T05:42:56;6.20;99.90
23873;DHT22;42884;50.718;4.630;2024-03-02T05:45:22;6.10;99.90
23873;DHT22;42884;50.718;4.630;2024-03-02T05:47:47;6.10;99.90
23873;DHT22;42884;50.718;4.630;2024-03-02T05:50:13;6.10;99.90
23873;DHT22;42884;50.718;4.630;2024-03-02T05:52:39;6.10;99.90
23873;DHT22;42884;50.718;4.630;2024-03-02T05:55:05;6.20;99.90
23873;DHT22;42884;50.718;4.630;2024-03-02T05:57:30;6.10;99.90
23873;DHT22;42884;50.718;4.630;2024-03-02T06:00:13;6.20;99.90
23873;DHT22;42884;50.718;4.630;2024-03-02T06:02:41;6.20;99.90
23873;DHT22;42884;50.718;4.630;2024-03-02T06:05:07;6.20;99.90
23873;DHT22;42884;50.718;4.630;2024-03-02T06:07:33;6.20;99.90
23873;DHT22;42884;50.718;4.630;2024-03-02T06:09:59;6.20;99.90
23873;DHT22;42884;50.718;4.630;2024-03-02T06:12:25;6.20;99.90
23873;DHT22;42884;50.718;4.630;2024-03-02T06:14:50;6.20;99.90
23873;DHT22;42884;50.718;4.630;2024-03-02T06:17:16;6.20;99.90
23873;DHT22;42884;50.718;4.630;2024-03-02T06:19:42;6.10;99.90
23873;DHT22;42884;50.718;4.630;2024-03-02T06:22:07;6.10;99.90
23873;DHT22;42884;50.718;4.630;2024-03-02T06:24:36;6.10;99.90
23873;DHT22;42884;50.718;4.630;2024-03-02T06:27:03;6.20;99.90
23873;DHT22;42884;50.718;4.630;2024-03-02T06:29:29;6.10;99.90
23873;DHT22;42884;50.718;4.630;2024-03-02T06:31:57;6.10;99.90
23873;DHT22;42884;50.718;4.630;2024-03-02T06:34:23;6.10;99.90
23873;DHT22;42884;50.718;4.630;2024-03-02T06:36:49;6.10;99.90
23873;DHT22;42884;50.718;4.630;2024-03-02T06:39:14;6.10;99.90
23873;DHT22;42884;50.718;4.630;2024-03-02T06:41:40;6.10;99.90
23873;DHT22;42884;50.718;4.630;2024-03-02T06:44:06;6.10;99.90
23873;DHT22;42884;50.718;4.630;2024-03-02T06:46:32;6.00;99.90
23873;DHT22;42884;50.718;4.630;2024-03-02T06:48:57;6.00;99.90
23873;DHT22;42884;50.718;4.630;2024-03-02T06:51:23;6.10;99.90
23873;DHT22;42884;50.718;4.630;2024-03-02T06:53:49;6.10;99.90
23873;DHT22;42884;50.718;4.630;2024-03-02T06:56:15;6.10;99.90
23873;DHT22;42884;50.718;4.630;2024-03-02T06:58:40;6.10;99.90
23873;DHT22;42884;50.718;4.630;2024-03-02T07:01:06;6.10;99.90
23873;DHT22;42884;50.718;4.630;2024-03-02T07:03:32;6.10;99.90
23873;DHT22;42884;50.718;4.630;2024-03-02T07:05:58;6.10;99.90
23873;DHT22;42884;50.718;4.630;2024-03-02T07:08:24;6.10;99.90
23873;DHT22;42884;50.718;4.630;2024-03-02T07:10:49;6.20;99.90
23873;DHT22;42884;50.718;4.630;2024-03-02T07:13:15;6.20;99.90
23873;DHT22;42884;50.718;4.630;2024-03-02T07:15:41;6.30;99.90
23873;DHT22;42884;50.718;4.630;2024-03-02T07:18:35;6.40;99.90
23873;DHT22;42884;50.718;4.630;2024-03-02T07:21:09;6.40;99.90
23873;DHT22;42884;50.718;4.630;2024-03-02T07:23:35;6.40;99.90
23873;DHT22;42884;50.718;4.630;2024-03-02T07:26:01;6.40;99.90
23873;DHT22;42884;50.718;4.630;2024-03-02T07:28:27;6.40;99.90
23873;DHT22;42884;50.718;4.630;2024-03-02T07:30:59;6.50;99.90
23873;DHT22;42884;50.718;4.630;2024-03-02T07:33:25;6.60;99.90
23873;DHT22;42884;50.718;4.630;2024-03-02T07:35:51;6.70;99.90
23873;DHT22;42884;50.718;4.630;2024-03-02T07:38:17;6.70;99.90
23873;DHT22;42884;50.718;4.630;2024-03-02T07:40:43;6.80;99.90
23873;DHT22;42884;50.718;4.630;2024-03-02T07:43:09;6.80;99.90
23873;DHT22;42884;50.718;4.630;2024-03-02T07:45:35;6.80;99.90
23873;DHT22;42884;50.718;4.630;2024-03-02T07:48:04;7.00;99.90
23873;DHT22;42884;50.718;4.630;2024-03-02T07:50:29;7.00;99.90
23873;DHT22;42884;50.718;4.630;2024-03-02T07:53:01;7.00;99.90
23873;DHT22;42884;50.718;4.630;2024-03-02T07:55:26;7.10;99.90
23873;DHT22;42884;50.718;4.630;2024-03-02T07:57:52;7.20;99.90
23873;DHT22;42884;50.718;4.630;2024-03-02T08:00:18;7.30;99.90
23873;DHT22;42884;50.718;4.630;2024-03-02T08:02:44;7.40;99.90
23873;DHT22;42884;50.718;4.630;2024-03-02T08:05:10;7.40;99.90
23873;DHT22;42884;50.718;4.630;2024-03-02T08:07:36;7.50;99.90
23873;DHT22;42884;50.718;4.630;2024-03-02T08:10:02;7.50;99.90
23873;DHT22;42884;50.718;4.630;2024-03-02T08:12:27;7.60;99.90
23873;DHT22;42884;50.718;4.630;2024-03-02T08:14:53;7.70;99.90
23873;DHT22;42884;50.718;4.630;2024-03-02T08:17:19;7.80;99.90
23873;DHT22;42884;50.718;4.630;2024-03-02T08:19:45;7.80;99.90
23873;DHT22;42884;50.718;4.630;2024-03-02T08:22:10;7.90;99.90
23873;DHT22;42884;50.718;4.630;2024-03-02T08:24:37;8.00;99.90
23873;DHT22;42884;50.718;4.630;2024-03-02T08:27:03;8.10;99.90
23873;DHT22;42884;50.718;4.630;2024-03-02T08:29:29;8.20;99.90
23873;DHT22;42884;50.718;4.630;2024-03-02T08:31:55;8.30;99.90
23873;DHT22;42884;50.718;4.630;2024-03-02T08:34:20;8.30;99.90
23873;DHT22;42884;50.718;4.630;2024-03-02T08:36:46;8.40;99.90
23873;DHT22;42884;50.718;4.630;2024-03-02T08:39:12;8.50;99.90
23873;DHT22;42884;50.718;4.630;2024-03-02T08:41:47;8.50;99.90
23873;DHT22;42884;50.718;4.630;2024-03-02T08:44:13;8.60;99.90
23873;DHT22;42884;50.718;4.630;2024-03-02T08:46:40;8.60;99.90
23873;DHT22;42884;50.718;4.630;2024-03-02T08:49:06;8.60;99.90
23873;DHT22;42884;50.718;4.630;2024-03-02T08:51:32;8.70;99.90
23873;DHT22;42884;50.718;4.630;2024-03-02T08:53:58;8.70;99.90
23873;DHT22;42884;50.718;4.630;2024-03-02T08:56:25;8.80;99.90
23873;DHT22;42884;50.718;4.630;2024-03-02T08:58:51;8.80;99.90
23873;DHT22;42884;50.718;4.630;2024-03-02T09:01:18;8.90;99.90
23873;DHT22;42884;50.718;4.630;2024-03-02T09:03:45;9.00;99.90
23873;DHT22;42884;50.718;4.630;2024-03-02T09:06:11;9.10;99.90
23873;DHT22;42884;50.718;4.630;2024-03-02T09:08:37;9.20;99.90
23873;DHT22;42884;50.718;4.630;2024-03-02T09:11:04;9.20;99.90
23873;DHT22;42884;50.718;4.630;2024-03-02T09:13:31;9.20;99.90
23873;DHT22;42884;50.718;4.630;2024-03-02T09:15:57;9.30;99.90
23873;DHT22;42884;50.718;4.630;2024-03-02T09:18:23;9.20;99.90
23873;DHT22;42884;50.718;4.630;2024-03-02T09:20:48;9.20;99.90
23873;DHT22;42884;50.718;4.630;2024-03-02T09:23:14;9.30;99.90
23873;DHT22;42884;50.718;4.630;2024-03-02T09:25:40;9.20;99.90
23873;DHT22;42884;50.718;4.630;2024-03-02T09:28:06;9.30;99.90
23873;DHT22;42884;50.718;4.630;2024-03-02T09:30:32;9.40;99.90
23873;DHT22;42884;50.718;4.630;2024-03-02T09:32:58;9.60;99.90
23873;DHT22;42884;50.718;4.630;2024-03-02T09:35:24;9.70;99.90
23873;DHT22;42884;50.718;4.630;2024-03-02T09:37:50;9.90;99.90
23873;DHT22;42884;50.718;4.630;2024-03-02T09:40:16;10.30;99.90
23873;DHT22;42884;50.718;4.630;2024-03-02T09:42:42;10.70;99.90
23873;DHT22;42884;50.718;4.630;2024-03-02T09:45:08;10.70;99.90
23873;DHT22;42884;50.718;4.630;2024-03-02T09:47:34;10.70;99.90
23873;DHT22;42884;50.718;4.630;2024-03-02T09:50:00;10.80;99.90
23873;DHT22;42884;50.718;4.630;2024-03-02T09:52:26;11.30;99.90
23873;DHT22;42884;50.718;4.630;2024-03-02T09:54:52;12.10;99.90
23873;DHT22;42884;50.718;4.630;2024-03-02T09:57:18;12.60;99.90
23873;DHT22;42884;50.718;4.630;2024-03-02T09:59:43;13.00;99.90
23873;DHT22;42884;50.718;4.630;2024-03-02T10:02:10;13.60;99.90
23873;DHT22;42884;50.718;4.630;2024-03-02T10:04:36;14.60;99.90
23873;DHT22;42884;50.718;4.630;2024-03-02T10:07:14;15.10;99.90
23873;DHT22;42884;50.718;4.630;2024-03-02T10:09:42;15.10;99.90
23873;DHT22;42884;50.718;4.630;2024-03-02T10:12:09;15.50;99.90
23873;DHT22;42884;50.718;4.630;2024-03-02T10:14:35;15.70;99.90
23873;DHT22;42884;50.718;4.630;2024-03-02T10:17:08;16.50;99.90
23873;DHT22;42884;50.718;4.630;2024-03-02T10:19:35;17.30;99.90
23873;DHT22;42884;50.718;4.630;2024-03-02T10:22:03;16.90;99.90
23873;DHT22;42884;50.718;4.630;2024-03-02T10:24:45;16.90;99.90
23873;DHT22;42884;50.718;4.630;2024-03-02T10:27:22;16.80;99.90
23873;DHT22;42884;50.718;4.630;2024-03-02T10:29:48;16.80;99.90
23873;DHT22;42884;50.718;4.630;2024-03-02T10:32:15;16.80;99.90
23873;DHT22;42884;50.718;4.630;2024-03-02T10:34:43;17.40;99.90
23873;DHT22;42884;50.718;4.630;2024-03-02T10:37:11;16.80;99.90
23873;DHT22;42884;50.718;4.630;2024-03-02T10:39:37;16.50;99.90
23873;DHT22;42884;50.718;4.630;2024-03-02T10:42:06;16.10;99.90
23873;DHT22;42884;50.718;4.630;2024-03-02T10:44:33;16.70;99.90
23873;DHT22;42884;50.718;4.630;2024-03-02T10:47:04;16.60;99.90
23873;DHT22;42884;50.718;4.630;2024-03-02T10:49:31;17.40;99.90
23873;DHT22;42884;50.718;4.630;2024-03-02T10:52:00;16.50;99.90
23873;DHT22;42884;50.718;4.630;2024-03-02T10:54:26;15.70;99.90
23873;DHT22;42884;50.718;4.630;2024-03-02T10:56:57;16.10;99.90
23873;DHT22;42884;50.718;4.630;2024-03-02T10:59:27;15.80;99.90
23873;DHT22;42884;50.718;4.630;2024-03-02T11:01:59;14.90;99.90
23873;DHT22;42884;50.718;4.630;2024-03-02T11:04:27;14.80;99.90
23873;DHT22;42884;50.718;4.630;2024-03-02T11:07:05;14.60;99.90
23873;DHT22;42884;50.718;4.630;2024-03-02T11:09:34;13.90;99.90
23873;DHT22;42884;50.718;4.630;2024-03-02T11:12:06;13.90;99.90
23873;DHT22;42884;50.718;4.630;2024-03-02T11:14:39;14.30;99.90
23873;DHT22;42884;50.718;4.630;2024-03-02T11:17:09;14.70;99.90
23873;DHT22;42884;50.718;4.630;2024-03-02T11:19:38;14.80;99.90
23873;DHT22;42884;50.718;4.630;2024-03-02T11:22:05;14.90;99.90
23873;DHT22;42884;50.718;4.630;2024-03-02T11:24:32;15.00;99.90
23873;DHT22;42884;50.718;4.630;2024-03-02T11:27:01;15.10;99.90
23873;DHT22;42884;50.718;4.630;2024-03-02T11:32:25;15.40;99.90
23873;DHT22;42884;50.718;4.630;2024-03-02T11:34:51;15.80;99.90
23873;DHT22;42884;50.718;4.630;2024-03-02T11:37:18;16.40;99.90
23873;DHT22;42884;50.718;4.630;2024-03-02T11:39:45;16.70;99.90
23873;DHT22;42884;50.718;4.630;2024-03-02T11:42:11;16.40;99.90
23873;DHT22;42884;50.718;4.630;2024-03-02T11:44:41;16.10;99.90
23873;DHT22;42884;50.718;4.630;2024-03-02T11:47:10;16.40;99.90
23873;DHT22;42884;50.718;4.630;2024-03-02T11:49:39;16.90;99.90
23873;DHT22;42884;50.718;4.630;2024-03-02T11:52:06;16.90;99.90
23873;DHT22;42884;50.718;4.630;2024-03-02T11:54:33;16.90;99.90
23873;DHT22;42884;50.718;4.630;2024-03-02T11:57:03;16.50;99.90
23873;DHT22;42884;50.718;4.630;2024-03-02T11:59:29;16.20;99.90
23873;DHT22;42884;50.718;4.630;2024-03-02T12:01:55;16.50;99.90
23873;DHT22;42884;50.718;4.630;2024-03-02T12:04:24;16.00;99.90
23873;DHT22;42884;50.718;4.630;2024-03-02T12:06:55;16.00;99.90
23873;DHT22;42884;50.718;4.630;2024-03-02T12:09:22;15.80;99.90
23873;DHT22;42884;50.718;4.630;2024-03-02T12:11:47;15.80;99.90
23873;DHT22;42884;50.718;4.630;2024-03-02T12:14:13;15.70;99.90
23873;DHT22;42884;50.718;4.630;2024-03-02T12:16:43;15.60;99.90
23873;DHT22;42884;50.718;4.630;2024-03-02T12:19:09;15.60;99.90
23873;DHT22;42884;50.718;4.630;2024-03-02T12:21:34;15.70;99.90
23873;DHT22;42884;50.718;4.630;2024-03-02T12:24:01;15.60;99.90
23873;DHT22;42884;50.718;4.630;2024-03-02T12:26:27;15.40;99.90
23873;DHT22;42884;50.718;4.630;2024-03-02T12:28:54;15.30;99.90
23873;DHT22;42884;50.718;4.630;2024-03-02T12:31:20;14.90;99.90
23873;DHT22;42884;50.718;4.630;2024-03-02T12:33:46;14.50;99.90
23873;DHT22;42884;50.718;4.630;2024-03-02T12:36:13;14.10;99.90
23873;DHT22;42884;50.718;4.630;2024-03-02T12:38:48;13.90;99.90
23873;DHT22;42884;50.718;4.630;2024-03-02T12:41:17;13.80;99.90
23873;DHT22;42884;50.718;4.630;2024-03-02T12:43:42;13.90;99.90
23873;DHT22;42884;50.718;4.630;2024-03-02T12:46:08;13.90;99.90
23873;DHT22;42884;50.718;4.630;2024-03-02T12:48:35;13.90;99.90
23873;DHT22;42884;50.718;4.630;2024-03-02T12:51:02;13.80;99.90
23873;DHT22;42884;50.718;4.630;2024-03-02T12:53:27;13.90;99.90
23873;DHT22;42884;50.718;4.630;2024-03-02T12:55:53;14.20;99.90
23873;DHT22;42884;50.718;4.630;2024-03-02T12:58:22;14.80;99.90
23873;DHT22;42884;50.718;4.630;2024-03-02T13:00:48;15.50;99.90
23873;DHT22;42884;50.718;4.630;2024-03-02T13:03:14;15.70;99.90
23873;DHT22;42884;50.718;4.630;2024-03-02T13:05:41;16.00;99.90
23873;DHT22;42884;50.718;4.630;2024-03-02T13:08:06;15.80;99.90
23873;DHT22;42884;50.718;4.630;2024-03-02T13:10:33;15.50;99.90
23873;DHT22;42884;50.718;4.630;2024-03-02T13:12:59;15.40;99.90
23873;DHT22;42884;50.718;4.630;2024-03-02T13:15:26;15.40;99.90
23873;DHT22;42884;50.718;4.630;2024-03-02T13:17:52;15.20;99.90
23873;DHT22;42884;50.718;4.630;2024-03-02T13:20:18;15.60;99.90
23873;DHT22;42884;50.718;4.630;2024-03-02T13:22:45;16.20;99.90
23873;DHT22;42884;50.718;4.630;2024-03-02T13:25:11;17.20;99.90
23873;DHT22;42884;50.718;4.630;2024-03-02T13:27:37;17.60;99.90
23873;DHT22;42884;50.718;4.630;2024-03-02T13:30:04;18.40;99.90
23873;DHT22;42884;50.718;4.630;2024-03-02T13:32:31;18.30;99.90
23873;DHT22;42884;50.718;4.630;2024-03-02T13:34:57;18.30;99.90
23873;DHT22;42884;50.718;4.630;2024-03-02T13:37:22;17.40;99.90
23873;DHT22;42884;50.718;4.630;2024-03-02T13:39:48;16.80;99.90
23873;DHT22;42884;50.718;4.630;2024-03-02T13:42:14;17.40;99.90
23873;DHT22;42884;50.718;4.630;2024-03-02T13:44:43;17.70;99.90
23873;DHT22;42884;50.718;4.630;2024-03-02T13:47:11;17.60;99.90
23873;DHT22;42884;50.718;4.630;2024-03-02T13:49:36;17.10;99.90
23873;DHT22;42884;50.718;4.630;2024-03-02T13:52:04;16.40;99.90
23873;DHT22;42884;50.718;4.630;2024-03-02T13:54:44;16.30;99.90
23873;DHT22;42884;50.718;4.630;2024-03-02T13:57:10;15.80;99.90
23873;DHT22;42884;50.718;4.630;2024-03-02T13:59:37;16.00;99.90
23873;DHT22;42884;50.718;4.630;2024-03-02T14:02:03;16.20;99.90
23873;DHT22;42884;50.718;4.630;2024-03-02T14:04:34;16.20;99.90
23873;DHT22;42884;50.718;4.630;2024-03-02T14:07:00;15.80;99.90
23873;DHT22;42884;50.718;4.630;2024-03-02T14:09:26;15.60;99.90
23873;DHT22;42884;50.718;4.630;2024-03-02T14:11:53;15.40;99.90
23873;DHT22;42884;50.718;4.630;2024-03-02T14:14:19;15.10;99.90
23873;DHT22;42884;50.718;4.630;2024-03-02T14:16:45;14.90;99.90
23873;DHT22;42884;50.718;4.630;2024-03-02T14:19:11;14.70;99.90
23873;DHT22;42884;50.718;4.630;2024-03-02T14:21:38;14.50;99.90
23873;DHT22;42884;50.718;4.630;2024-03-02T14:24:04;14.40;99.90
23873;DHT22;42884;50.718;4.630;2024-03-02T14:26:32;14.30;99.90
23873;DHT22;42884;50.718;4.630;2024-03-02T14:28:59;14.40;99.90
23873;DHT22;42884;50.718;4.630;2024-03-02T14:31:26;14.40;99.90
23873;DHT22;42884;50.718;4.630;2024-03-02T14:33:53;14.60;99.90
23873;DHT22;42884;50.718;4.630;2024-03-02T14:36:19;14.40;99.90
23873;DHT22;42884;50.718;4.630;2024-03-02T14:38:45;14.40;99.90
23873;DHT22;42884;50.718;4.630;2024-03-02T14:41:12;14.40;99.90
23873;DHT22;42884;50.718;4.630;2024-03-02T14:43:38;14.40;99.90
23873;DHT22;42884;50.718;4.630;2024-03-02T14:46:04;14.30;99.90
23873;DHT22;42884;50.718;4.630;2024-03-02T14:48:30;14.20;99.90
23873;DHT22;42884;50.718;4.630;2024-03-02T14:50:56;14.30;99.90
23873;DHT22;42884;50.718;4.630;2024-03-02T14:53:22;14.40;99.90
23873;DHT22;42884;50.718;4.630;2024-03-02T14:55:49;14.40;99.90
23873;DHT22;42884;50.718;4.630;2024-03-02T14:58:15;14.40;99.90
23873;DHT22;42884;50.718;4.630;2024-03-02T15:00:41;14.30;99.90
23873;DHT22;42884;50.718;4.630;2024-03-02T15:03:07;14.20;99.90
23873;DHT22;42884;50.718;4.630;2024-03-02T15:05:37;14.00;99.90
23873;DHT22;42884;50.718;4.630;2024-03-02T15:08:04;13.90;99.90
23873;DHT22;42884;50.718;4.630;2024-03-02T15:10:33;13.80;99.90
23873;DHT22;42884;50.718;4.630;2024-03-02T15:12:59;13.70;99.90
23873;DHT22;42884;50.718;4.630;2024-03-02T15:15:25;13.80;99.90
23873;DHT22;42884;50.718;4.630;2024-03-02T15:17:51;13.90;99.90
23873;DHT22;42884;50.718;4.630;2024-03-02T15:20:17;13.90;99.90
23873;DHT22;42884;50.718;4.630;2024-03-02T15:22:43;14.00;99.90
23873;DHT22;42884;50.718;4.630;2024-03-02T15:25:09;14.00;99.90
23873;DHT22;42884;50.718;4.630;2024-03-02T15:27:35;14.00;99.90
23873;DHT22;42884;50.718;4.630;2024-03-02T15:30:02;14.10;99.90
23873;DHT22;42884;50.718;4.630;2024-03-02T15:32:28;14.00;99.90
23873;DHT22;42884;50.718;4.630;2024-03-02T15:34:54;14.20;99.90
23873;DHT22;42884;50.718;4.630;2024-03-02T15:37:19;14.30;99.90
23873;DHT22;42884;50.718;4.630;2024-03-02T15:39:45;14.30;99.90
23873;DHT22;42884;50.718;4.630;2024-03-02T15:42:11;14.30;99.90
23873;DHT22;42884;50.718;4.630;2024-03-02T15:44:37;14.30;99.90